Time;durP1;ratioP1;P1;durP2;ratioP2;P2;SDS_P1;SDS_P2;PMS_P1;PMS_P2;Temp;Humidity;BMP_temperature;BMP_pressure;BME280_temperature;BME280_humidity;BME280_pressure;Samples;Min_cycle;Max_cycle;Signal;HPM_P1;HPM_P2
2024/01/29 00:01:19;;;;;;;1.45;0.88;;;2.10;99.90;;;;;;4420360;32;20075;-64
2024/01/29 00:03:46;;;;;;;0.65;0.65;;;2.10;99.90;;;;;;4418723;32;20069;-64
2024/01/29 00:06:11;;;;;;;0.32;0.32;;;2.10;99.90;;;;;;4419662;32;20457;-65
2024/01/29 00:08:37;;;;;;;0.90;0.90;;;2.10;99.90;;;;;;4420912;32;20078;-64
2024/01/29 00:11:03;;;;;;;1.75;0.95;;;2.10;99.90;;;;;;4416766;32;20066;-64
2024/01/29 00:13:28;;;;;;;3.55;1.85;;;2.00;99.90;;;;;;4417409;32;20131;-63
2024/01/29 00:15:54;;;;;;;0.88;0.70;;;2.00;99.90;;;;;;4416385;32;20505;-65
2024/01/29 00:18:19;;;;;;;0.30;0.30;;;2.00;99.90;;;;;;4421801;32;20085;-65
2024/01/29 00:20:45;;;;;;;0.50;0.50;;;2.00;99.90;;;;;;4419419;32;20066;-65
2024/01/29 00:23:10;;;;;;;0.57;0.57;;;2.00;99.90;;;;;;4423666;32;20062;-63
2024/01/29 00:25:36;;;;;;;0.82;0.82;;;1.90;99.90;;;;;;4420094;32;20116;-63
2024/01/29 00:28:01;;;;;;;0.40;0.40;;;2.00;99.90;;;;;;4420323;32;20069;-63
2024/01/29 00:30:27;;;;;;;1.10;1.02;;;2.00;99.90;;;;;;4418382;32;20541;-63
2024/01/29 00:32:52;;;;;;;1.83;0.65;;;2.00;99.90;;;;;;4417864;32;20057;-64
2024/01/29 00:35:18;;;;;;;0.30;0.30;;;2.00;99.90;;;;;;4402747;32;20116;-63
2024/01/29 00:37:43;;;;;;;0.35;0.35;;;1.90;99.90;;;;;;4418508;32;20173;-63
2024/01/29 00:40:09;;;;;;;0.50;0.50;;;1.90;99.90;;;;;;4420132;32;20422;-63
2024/01/29 00:42:34;;;;;;;0.50;0.50;;;1.90;99.90;;;;;;4402518;32;20065;-63
2024/01/29 00:45:00;;;;;;;1.58;1.48;;;1.80;99.90;;;;;;4412181;32;20089;-63
2024/01/29 00:47:25;;;;;;;0.77;0.77;;;1.80;99.90;;;;;;4416458;32;20530;-63
2024/01/29 00:49:51;;;;;;;0.45;0.45;;;1.80;99.90;;;;;;4419862;32;20069;-63
2024/01/29 00:52:16;;;;;;;0.40;0.40;;;1.70;99.90;;;;;;4403799;32;20069;-61
2024/01/29 00:54:42;;;;;;;3.55;1.20;;;1.70;99.90;;;;;;4416901;32;20131;-61
2024/01/29 00:57:07;;;;;;;0.60;0.60;;;1.70;99.90;;;;;;4421111;32;20796;-61
2024/01/29 00:59:33;;;;;;;0.70;0.68;;;1.60;99.90;;;;;;4415903;32;20120;-61
2024/01/29 01:01:58;;;;;;;0.37;0.37;;;1.70;99.90;;;;;;4419363;32;20073;-61
2024/01/29 01:04:24;;;;;;;0.40;0.40;;;1.70;99.90;;;;;;4419603;32;20442;-62
2024/01/29 01:06:49;;;;;;;0.68;0.68;;;1.60;99.90;;;;;;4415745;32;20222;-62
2024/01/29 01:09:14;;;;;;;1.08;0.88;;;1.60;99.90;;;;;;4417809;32;20089;-61
2024/01/29 01:11:42;;;;;;;0.40;0.40;;;1.70;99.90;;;;;;4417117;32;20093;-61
2024/01/29 01:14:07;;;;;;;0.95;0.88;;;1.70;99.90;;;;;;4413304;32;20589;-61
2024/01/29 01:16:33;;;;;;;0.37;0.37;;;1.60;99.90;;;;;;4417511;32;20070;-61
2024/01/29 01:18:58;;;;;;;0.40;0.40;;;1.50;99.90;;;;;;4415130;32;20410;-61
2024/01/29 01:21:24;;;;;;;0.50;0.50;;;1.50;99.90;;;;;;4419495;32;20074;-64
2024/01/29 01:23:50;;;;;;;0.50;0.50;;;1.50;99.90;;;;;;4402807;32;20455;-61
2024/01/29 01:26:15;;;;;;;0.50;0.50;;;1.50;99.90;;;;;;4406607;32;20078;-61
2024/01/29 01:28:41;;;;;;;0.75;0.73;;;1.50;99.90;;;;;;4418074;32;20127;-63
2024/01/29 01:31:06;;;;;;;0.65;0.65;;;1.50;99.90;;;;;;4418257;32;20061;-61
2024/01/29 01:33:32;;;;;;;3.00;1.33;;;1.40;99.90;;;;;;4420051;32;20612;-64
2024/01/29 01:35:57;;;;;;;0.52;0.52;;;1.40;99.90;;;;;;4418201;32;20074;-64
2024/01/29 01:38:23;;;;;;;5.15;2.17;;;1.40;99.90;;;;;;4417374;32;20053;-64
2024/01/29 01:40:48;;;;;;;1.40;1.30;;;1.40;99.90;;;;;;4420286;32;20420;-64
2024/01/29 01:43:16;;;;;;;0.50;0.50;;;1.40;99.90;;;;;;4417165;32;20074;-64
2024/01/29 01:45:42;;;;;;;0.70;0.70;;;1.30;99.90;;;;;;4417462;32;20509;-64
2024/01/29 01:48:07;;;;;;;0.50;0.50;;;1.30;99.90;;;;;;4415696;32;20099;-64
2024/01/29 01:50:33;;;;;;;0.93;0.88;;;1.20;99.90;;;;;;4403060;32;20065;-64
2024/01/29 01:52:59;;;;;;;1.23;1.12;;;1.20;99.90;;;;;;4419294;32;20485;-64
2024/01/29 01:55:24;;;;;;;0.40;0.40;;;1.30;99.90;;;;;;4421795;32;20057;-64
2024/01/29 01:57:51;;;;;;;0.70;0.70;;;1.20;99.90;;;;;;4415856;32;20089;-64
2024/01/29 02:00:17;;;;;;;0.68;0.62;;;1.10;99.90;;;;;;4416329;32;20082;-64
2024/01/29 02:02:43;;;;;;;0.40;0.40;;;1.20;99.90;;;;;;4414079;32;20069;-62
2024/01/29 02:05:08;;;;;;;0.40;0.40;;;1.10;99.90;;;;;;4415986;32;20447;-62
2024/01/29 02:07:34;;;;;;;15.13;3.40;;;1.10;99.90;;;;;;4416865;32;20104;-63
2024/01/29 02:09:59;;;;;;;0.30;0.30;;;1.10;99.90;;;;;;4418507;32;20126;-63
2024/01/29 02:12:25;;;;;;;1.65;1.40;;;1.10;99.90;;;;;;4416923;32;20081;-63
2024/01/29 02:14:51;;;;;;;0.68;0.68;;;1.10;99.90;;;;;;4415024;32;20426;-63
2024/01/29 02:17:17;;;;;;;0.70;0.70;;;1.10;99.90;;;;;;4401689;32;20616;-63
2024/01/29 02:19:42;;;;;;;0.37;0.37;;;1.10;99.90;;;;;;4419366;32;20069;-63
2024/01/29 02:22:08;;;;;;;5.25;1.85;;;1.10;99.90;;;;;;4415912;32;20073;-65
2024/01/29 02:24:33;;;;;;;0.43;0.43;;;1.10;99.90;;;;;;4419765;32;20062;-63
2024/01/29 02:26:59;;;;;;;0.30;0.30;;;1.10;99.90;;;;;;4417724;32;20600;-63
2024/01/29 02:29:24;;;;;;;0.60;0.60;;;1.10;99.90;;;;;;4414900;32;20088;-63
2024/01/29 02:31:50;;;;;;;1.25;0.80;;;1.10;99.90;;;;;;4418892;32;20541;-63
2024/01/29 02:34:15;;;;;;;0.40;0.40;;;1.20;99.90;;;;;;4417045;32;20082;-63
2024/01/29 02:36:41;;;;;;;0.55;0.55;;;1.20;99.90;;;;;;4417917;32;20073;-63
2024/01/29 02:39:08;;;;;;;0.50;0.50;;;1.10;99.90;;;;;;4417088;32;20077;-64
2024/01/29 02:41:33;;;;;;;5.35;2.05;;;1.10;99.90;;;;;;4418040;32;20506;-61
2024/01/29 02:43:58;;;;;;;1.27;1.17;;;1.20;99.90;;;;;;4414700;32;20124;-67
2024/01/29 02:46:24;;;;;;;0.50;0.50;;;1.20;99.90;;;;;;4415954;32;20066;-66
2024/01/29 02:48:49;;;;;;;0.50;0.50;;;1.30;99.90;;;;;;4416620;32;20077;-64
2024/01/29 02:51:15;;;;;;;0.30;0.30;;;1.20;99.90;;;;;;4421462;32;20053;-64
2024/01/29 02:53:40;;;;;;;28.70;1.50;;;1.20;99.90;;;;;;4415442;32;21044;-64
2024/01/29 02:56:06;;;;;;;0.50;0.50;;;1.20;99.90;;;;;;4419727;32;20061;-64
2024/01/29 02:58:31;;;;;;;0.37;0.37;;;1.20;99.90;;;;;;4418258;32;20061;-64
2024/01/29 03:00:57;;;;;;;0.40;0.40;;;1.20;99.90;;;;;;4420462;32;20427;-64
2024/01/29 03:03:22;;;;;;;0.45;0.45;;;1.30;99.90;;;;;;4418157;32;20057;-64
2024/01/29 03:05:48;;;;;;;0.30;0.30;;;1.30;99.90;;;;;;4416852;32;20521;-64
2024/01/29 03:08:13;;;;;;;0.37;0.37;;;1.20;99.90;;;;;;4419018;32;20084;-64
2024/01/29 03:10:39;;;;;;;0.65;0.65;;;1.10;99.90;;;;;;4414379;32;20075;-64
2024/01/29 03:13:04;;;;;;;0.50;0.50;;;1.10;99.90;;;;;;4420593;32;20154;-63
2024/01/29 03:15:30;;;;;;;0.93;0.93;;;1.10;99.90;;;;;;4417230;32;20077;-63
2024/01/29 03:17:55;;;;;;;0.60;0.60;;;1.00;99.90;;;;;;4415365;32;20194;-63
2024/01/29 03:20:21;;;;;;;0.60;0.60;;;1.00;99.90;;;;;;4414781;32;20057;-63
2024/01/29 03:22:46;;;;;;;0.40;0.40;;;0.90;99.90;;;;;;4416834;32;20077;-63
2024/01/29 03:25:11;;;;;;;0.98;0.98;;;0.80;99.90;;;;;;4415641;32;20117;-63
2024/01/29 03:27:37;;;;;;;0.60;0.60;;;0.70;99.90;;;;;;4417365;32;20072;-63
2024/01/29 03:30:03;;;;;;;0.40;0.40;;;0.60;99.90;;;;;;4416326;32;20065;-63
2024/01/29 03:32:29;;;;;;;0.30;0.30;;;0.60;99.90;;;;;;4421258;32;20528;-63
2024/01/29 03:34:55;;;;;;;0.40;0.40;;;0.60;99.90;;;;;;4418558;32;20133;-63
2024/01/29 03:37:20;;;;;;;1.23;1.00;;;0.60;99.90;;;;;;4415608;32;20139;-63
2024/01/29 03:39:46;;;;;;;0.43;0.43;;;0.70;99.90;;;;;;4417086;32;20069;-63
2024/01/29 03:42:11;;;;;;;0.55;0.55;;;0.90;99.90;;;;;;4418067;32;20088;-63
2024/01/29 03:44:37;;;;;;;0.60;0.60;;;0.90;99.90;;;;;;4416707;32;20430;-63
2024/01/29 03:47:03;;;;;;;0.90;0.85;;;0.90;99.90;;;;;;4420757;32;20097;-61
2024/01/29 03:49:28;;;;;;;1.10;0.98;;;1.10;99.90;;;;;;4417210;32;20061;-63
2024/01/29 03:51:53;;;;;;;0.90;0.90;;;1.10;99.90;;;;;;4419086;32;20454;-61
2024/01/29 03:54:19;;;;;;;0.50;0.50;;;1.10;99.90;;;;;;4425973;32;20058;-61
2024/01/29 03:56:44;;;;;;;0.30;0.30;;;1.10;99.90;;;;;;4420287;32;20117;-61
2024/01/29 03:59:11;;;;;;;0.55;0.55;;;1.10;99.90;;;;;;4414218;32;20094;-61
2024/01/29 04:01:37;;;;;;;0.68;0.68;;;1.00;99.90;;;;;;4417721;32;20611;-62
2024/01/29 04:04:03;;;;;;;0.73;0.73;;;0.80;99.90;;;;;;4417537;32;20066;-61
2024/01/29 04:06:29;;;;;;;0.45;0.45;;;0.70;99.90;;;;;;4418416;32;20093;-61
2024/01/29 04:08:54;;;;;;;0.50;0.50;;;0.70;99.90;;;;;;4426070;32;20061;-61
2024/01/29 04:11:20;;;;;;;1.27;0.82;;;0.60;99.90;;;;;;4419833;32;20513;-61
2024/01/29 04:13:45;;;;;;;0.40;0.40;;;0.60;99.90;;;;;;4417723;32;20069;-64
2024/01/29 04:16:11;;;;;;;0.50;0.50;;;0.60;99.90;;;;;;4419405;32;20414;-64
2024/01/29 04:18:38;;;;;;;0.52;0.50;;;0.70;99.90;;;;;;4403113;32;20537;-64
2024/01/29 04:21:05;;;;;;;0.60;0.60;;;0.80;99.90;;;;;;4404369;32;20423;-64
2024/01/29 04:23:31;;;;;;;0.40;0.40;;;0.80;99.90;;;;;;4418405;32;20533;-63
2024/01/29 04:25:57;;;;;;;0.40;0.40;;;0.80;99.90;;;;;;4420608;32;20069;-63
2024/01/29 04:28:22;;;;;;;0.40;0.40;;;0.80;99.90;;;;;;4403651;32;20061;-63
2024/01/29 04:30:47;;;;;;;0.40;0.40;;;0.70;99.90;;;;;;4417513;32;20077;-63
2024/01/29 04:33:13;;;;;;;0.90;0.90;;;0.60;99.90;;;;;;4417857;32;20054;-62
2024/01/29 04:35:38;;;;;;;0.50;0.50;;;0.60;99.90;;;;;;4419600;32;20108;-61
2024/01/29 04:38:04;;;;;;;1.15;0.73;;;0.60;99.90;;;;;;4418851;32;21139;-61
2024/01/29 04:40:30;;;;;;;0.50;0.50;;;0.60;99.90;;;;;;4400993;32;20090;-61
2024/01/29 04:42:55;;;;;;;0.40;0.40;;;0.60;99.90;;;;;;4417630;32;20596;-64
2024/01/29 04:45:21;;;;;;;0.70;0.70;;;0.50;99.90;;;;;;4416322;32;20076;-64
2024/01/29 04:47:46;;;;;;;0.95;0.95;;;0.60;99.90;;;;;;4418088;32;20065;-64
2024/01/29 04:50:12;;;;;;;0.93;0.93;;;0.50;99.90;;;;;;4410638;32;20593;-65
2024/01/29 04:52:37;;;;;;;0.50;0.50;;;0.50;99.90;;;;;;4415610;32;20050;-67
2024/01/29 04:55:03;;;;;;;0.43;0.43;;;0.50;99.90;;;;;;4422652;32;20500;-64
2024/01/29 04:57:28;;;;;;;0.40;0.40;;;0.50;99.90;;;;;;4417479;32;20081;-65
2024/01/29 04:59:55;;;;;;;0.73;0.73;;;0.50;99.90;;;;;;4415977;32;20094;-64
2024/01/29 05:02:21;;;;;;;0.45;0.45;;;0.50;99.90;;;;;;4403127;32;20062;-64
2024/01/29 05:04:46;;;;;;;0.77;0.77;;;0.60;99.90;;;;;;4427717;32;20057;-64
2024/01/29 05:07:12;;;;;;;2.17;1.25;;;0.60;99.90;;;;;;4420507;32;20058;-64
2024/01/29 05:09:37;;;;;;;1.02;1.00;;;0.50;99.90;;;;;;4415091;32;20430;-64
2024/01/29 05:12:05;;;;;;;2.78;1.90;;;0.50;99.90;;;;;;4417221;32;20423;-64
2024/01/29 05:14:30;;;;;;;0.57;0.57;;;0.40;99.90;;;;;;4417567;32;20076;-64
2024/01/29 05:16:56;;;;;;;1.60;1.25;;;0.40;99.90;;;;;;4417656;32;20508;-64
2024/01/29 05:19:21;;;;;;;0.70;0.70;;;0.40;99.90;;;;;;4418644;32;20456;-64
2024/01/29 05:21:48;;;;;;;102.38;2.97;;;0.40;99.90;;;;;;4410640;32;20112;-64
2024/01/29 05:24:13;;;;;;;0.50;0.50;;;0.40;99.90;;;;;;4419680;32;21317;-64
2024/01/29 05:26:39;;;;;;;0.70;0.70;;;0.40;99.90;;;;;;4405078;32;20117;-64
2024/01/29 05:29:04;;;;;;;5.18;2.35;;;0.50;99.90;;;;;;4405421;32;20062;-64
2024/01/29 05:31:30;;;;;;;0.75;0.75;;;0.50;99.90;;;;;;4418652;32;20066;-64
2024/01/29 05:33:55;;;;;;;1.25;0.80;;;0.60;99.90;;;;;;4423210;32;20126;-64
2024/01/29 05:36:21;;;;;;;0.88;0.88;;;0.50;99.90;;;;;;4416631;32;20074;-64
2024/01/29 05:38:46;;;;;;;1.33;1.20;;;0.50;99.90;;;;;;4418231;32;20549;-64
2024/01/29 05:41:12;;;;;;;0.60;0.60;;;0.60;99.90;;;;;;4417342;32;20120;-64
2024/01/29 05:43:37;;;;;;;0.98;0.98;;;0.60;99.90;;;;;;4417238;32;20077;-64
2024/01/29 05:46:03;;;;;;;0.82;0.82;;;0.60;99.90;;;;;;4421850;32;20164;-64
2024/01/29 05:48:29;;;;;;;4.90;1.87;;;0.50;99.90;;;;;;4421031;32;20524;-64
2024/01/29 05:50:54;;;;;;;3.58;2.35;;;0.50;99.90;;;;;;4419416;32;20086;-64
2024/01/29 05:53:20;;;;;;;1.27;1.02;;;0.50;99.90;;;;;;4414419;32;20077;-60
2024/01/29 05:55:46;;;;;;;0.45;0.45;;;0.50;99.90;;;;;;4419031;32;20053;-60
2024/01/29 05:58:12;;;;;;;1.17;1.08;;;0.50;99.90;;;;;;4415233;32;20061;-61
2024/01/29 06:00:37;;;;;;;0.82;0.82;;;0.50;99.90;;;;;;4399848;32;20078;-61
2024/01/29 06:03:03;;;;;;;0.57;0.57;;;0.50;99.90;;;;;;4416235;32;20090;-61
2024/01/29 06:05:29;;;;;;;1.75;1.40;;;0.50;99.90;;;;;;4417904;32;20065;-61
2024/01/29 06:07:55;;;;;;;7.03;2.12;;;0.50;99.90;;;;;;4403463;32;20478;-61
2024/01/29 06:10:21;;;;;;;6.00;1.95;;;0.50;99.90;;;;;;4412398;32;20123;-60
2024/01/29 06:12:48;;;;;;;0.60;0.60;;;0.50;99.90;;;;;;4413467;32;20069;-61
2024/01/29 06:15:13;;;;;;;1.25;1.15;;;0.50;99.90;;;;;;4403277;32;20516;-60
2024/01/29 06:17:40;;;;;;;0.90;0.90;;;0.40;99.90;;;;;;4395530;32;20086;-61
2024/01/29 06:20:07;;;;;;;4.57;1.08;;;0.30;99.90;;;;;;4391081;32;20065;-61
2024/01/29 06:22:33;;;;;;;0.40;0.40;;;0.30;99.90;;;;;;4390793;32;20652;-60
2024/01/29 06:24:58;;;;;;;7.18;1.77;;;0.30;99.90;;;;;;4416374;32;20129;-60
2024/01/29 06:27:24;;;;;;;2.45;0.93;;;0.20;99.90;;;;;;4391866;32;20104;-61
2024/01/29 06:29:49;;;;;;;2.17;1.23;;;0.20;99.90;;;;;;4405381;32;20966;-61
2024/01/29 06:32:17;;;;;;;0.62;0.62;;;0.20;99.90;;;;;;4391282;32;20089;-62
2024/01/29 06:34:43;;;;;;;1.33;1.17;;;0.30;99.90;;;;;;4397574;32;20140;-61
2024/01/29 06:37:09;;;;;;;0.50;0.50;;;0.20;99.90;;;;;;4403298;32;20086;-62
2024/01/29 06:39:34;;;;;;;1.05;1.02;;;0.20;99.90;;;;;;4405332;32;21223;-61
2024/01/29 06:42:00;;;;;;;0.93;0.93;;;0.30;99.90;;;;;;4406779;32;20093;-62
2024/01/29 06:44:25;;;;;;;0.45;0.45;;;0.30;99.90;;;;;;4386999;32;20080;-61
2024/01/29 06:46:51;;;;;;;0.50;0.50;;;0.30;99.90;;;;;;4403426;32;20835;-62
2024/01/29 06:49:32;;;;;;;1.05;1.02;;;0.30;99.90;;;;;;4403414;32;20730;-63
2024/01/29 06:51:57;;;;;;;4.00;1.12;;;0.30;99.90;;;;;;4401433;32;20109;-62
2024/01/29 06:54:24;;;;;;;0.55;0.55;;;0.40;99.90;;;;;;4394454;32;20696;-62
2024/01/29 06:56:51;;;;;;;0.40;0.40;;;0.50;99.90;;;;;;4377423;32;20426;-62
2024/01/29 06:59:16;;;;;;;0.43;0.43;;;0.60;99.90;;;;;;4383495;32;20614;-63
2024/01/29 07:04:07;;;;;;;1.48;1.37;;;0.70;99.90;;;;;;4384493;32;20083;-62
2024/01/29 07:06:34;;;;;;;0.60;0.60;;;0.80;99.90;;;;;;4395136;32;20128;-61
2024/01/29 07:09:00;;;;;;;0.30;0.30;;;0.80;99.90;;;;;;4377676;32;20542;-62
2024/01/29 07:11:25;;;;;;;1.52;0.93;;;0.80;99.90;;;;;;4384036;32;20867;-64
2024/01/29 07:13:51;;;;;;;0.45;0.45;;;0.90;99.90;;;;;;4388911;32;20940;-63
2024/01/29 07:16:16;;;;;;;0.90;0.90;;;0.90;99.90;;;;;;4385010;32;20483;-62
2024/01/29 07:18:42;;;;;;;0.45;0.45;;;0.90;99.90;;;;;;4390113;32;20105;-63
2024/01/29 07:21:10;;;;;;;1.10;1.02;;;1.00;99.90;;;;;;4373738;32;20163;-62
2024/01/29 07:23:36;;;;;;;0.88;0.88;;;1.00;99.90;;;;;;4398084;32;20134;-61
2024/01/29 07:26:02;;;;;;;0.68;0.68;;;0.90;99.90;;;;;;4382232;32;20101;-62
2024/01/29 07:28:27;;;;;;;3.33;1.80;;;1.00;99.90;;;;;;4392189;32;20380;-61
2024/01/29 07:30:53;;;;;;;0.68;0.68;;;1.00;99.90;;;;;;4391906;32;20180;-62
2024/01/29 07:33:18;;;;;;;1.02;1.00;;;1.10;99.90;;;;;;4385700;32;20105;-65
2024/01/29 07:35:45;;;;;;;2.47;1.35;;;1.20;99.90;;;;;;4388555;32;20117;-62
2024/01/29 07:38:10;;;;;;;0.57;0.57;;;1.20;99.90;;;;;;4399615;32;20627;-62
2024/01/29 07:40:36;;;;;;;0.68;0.68;;;1.20;99.90;;;;;;4393902;32;20588;-62
2024/01/29 07:43:01;;;;;;;0.60;0.60;;;1.40;99.90;;;;;;4392809;32;20360;-66
2024/01/29 07:45:27;;;;;;;0.50;0.50;;;1.40;99.90;;;;;;4394524;32;20081;-66
2024/01/29 07:47:53;;;;;;;0.98;0.93;;;1.50;99.90;;;;;;4389547;32;20085;-65
2024/01/29 07:50:18;;;;;;;1.10;1.10;;;1.50;99.90;;;;;;4391502;32;20252;-67
2024/01/29 07:52:44;;;;;;;0.30;0.30;;;1.50;99.90;;;;;;4390895;32;20094;-62
2024/01/29 07:55:09;;;;;;;0.40;0.40;;;1.60;99.90;;;;;;4396491;32;20204;-61
2024/01/29 07:57:36;;;;;;;2.05;0.73;;;1.70;99.90;;;;;;4395679;32;20560;-62
2024/01/29 08:00:01;;;;;;;1.45;1.33;;;1.80;99.90;;;;;;4392705;32;20434;-61
2024/01/29 08:02:27;;;;;;;0.65;0.65;;;1.90;99.90;;;;;;4396950;32;20086;-62
2024/01/29 08:04:52;;;;;;;0.55;0.55;;;2.00;99.90;;;;;;4395107;32;20089;-62
2024/01/29 08:07:18;;;;;;;0.35;0.35;;;2.20;99.90;;;;;;4395937;32;20524;-61
2024/01/29 08:09:45;;;;;;;0.80;0.80;;;2.30;99.90;;;;;;4375989;32;20537;-62
2024/01/29 08:12:10;;;;;;;0.57;0.57;;;2.40;99.90;;;;;;4397884;32;20152;-61
2024/01/29 08:14:35;;;;;;;1.40;1.20;;;2.50;99.90;;;;;;4395609;32;21210;-61
2024/01/29 08:17:01;;;;;;;0.88;0.88;;;2.60;99.90;;;;;;4391234;32;20098;-62
2024/01/29 08:19:27;;;;;;;0.75;0.75;;;2.60;99.90;;;;;;4390998;32;20966;-62
2024/01/29 08:21:53;;;;;;;0.55;0.55;;;2.70;99.90;;;;;;4393711;32;20213;-63
2024/01/29 08:24:20;;;;;;;0.60;0.60;;;2.80;99.90;;;;;;4389319;32;20544;-60
2024/01/29 08:26:45;;;;;;;1.05;0.73;;;3.00;99.90;;;;;;4387654;32;20584;-61
2024/01/29 08:29:11;;;;;;;0.50;0.50;;;3.10;99.90;;;;;;4388438;32;20147;-61
2024/01/29 08:31:36;;;;;;;0.60;0.60;;;3.20;99.90;;;;;;4384469;32;20595;-69
2024/01/29 08:34:04;;;;;;;0.40;0.40;;;3.20;99.90;;;;;;4380631;32;20157;-61
2024/01/29 08:36:30;;;;;;;0.40;0.40;;;3.40;99.90;;;;;;4392780;32;20935;-61
2024/01/29 08:38:55;;;;;;;0.45;0.45;;;3.50;99.90;;;;;;4395723;32;20109;-61
2024/01/29 08:41:21;;;;;;;0.40;0.40;;;3.60;99.90;;;;;;4401003;32;20812;-63
2024/01/29 08:43:47;;;;;;;1.48;0.90;;;3.80;99.90;;;;;;4404936;32;20058;-64
2024/01/29 08:46:12;;;;;;;0.50;0.50;;;3.90;99.90;;;;;;4385212;32;20600;-67
2024/01/29 08:48:38;;;;;;;0.40;0.40;;;4.10;99.90;;;;;;4391557;32;20216;-68
2024/01/29 08:51:04;;;;;;;1.77;1.42;;;4.10;99.90;;;;;;4379732;32;20504;-67
2024/01/29 08:53:29;;;;;;;11.18;2.95;;;4.20;99.90;;;;;;4365543;32;20190;-66
2024/01/29 08:55:55;;;;;;;3.35;1.75;;;4.20;99.90;;;;;;4364094;32;20571;-65
2024/01/29 08:58:21;;;;;;;0.62;0.62;;;4.20;99.90;;;;;;4366231;32;20561;-66
2024/01/29 09:00:52;;;;;;;0.40;0.40;;;4.40;99.90;;;;;;4365097;32;20085;-66
2024/01/29 09:03:18;;;;;;;3.20;1.62;;;4.60;99.90;;;;;;4376918;32;20490;-65
2024/01/29 09:05:44;;;;;;;0.40;0.40;;;4.70;99.90;;;;;;4364190;32;20188;-64
2024/01/29 09:08:09;;;;;;;1.70;0.85;;;4.70;99.90;;;;;;4385601;32;20164;-66
2024/01/29 09:10:35;;;;;;;0.40;0.40;;;4.80;99.90;;;;;;4379095;32;20113;-66
2024/01/29 09:13:01;;;;;;;0.47;0.47;;;4.90;99.90;;;;;;4378965;32;20093;-65
2024/01/29 09:15:26;;;;;;;0.50;0.50;;;5.00;99.90;;;;;;4368518;32;20514;-65
2024/01/29 09:17:52;;;;;;;0.52;0.52;;;5.10;99.90;;;;;;4378341;32;20094;-65
2024/01/29 09:20:17;;;;;;;2.05;1.05;;;5.10;99.90;;;;;;4378987;32;20081;-66
2024/01/29 09:22:43;;;;;;;0.70;0.70;;;5.20;99.90;;;;;;4368866;32;20073;-66
2024/01/29 09:25:08;;;;;;;0.52;0.52;;;5.20;99.90;;;;;;4379659;32;20385;-65
2024/01/29 09:27:35;;;;;;;0.28;0.28;;;5.30;99.90;;;;;;4379577;32;20069;-66
2024/01/29 09:30:01;;;;;;;0.52;0.52;;;5.40;99.90;;;;;;4369377;32;20886;-66
2024/01/29 09:32:27;;;;;;;0.30;0.30;;;5.60;99.90;;;;;;4381357;32;20129;-66
2024/01/29 09:34:52;;;;;;;2.55;0.60;;;5.70;99.90;;;;;;4384645;32;20683;-67
2024/01/29 09:37:19;;;;;;;0.35;0.35;;;5.80;99.90;;;;;;4383796;32;21360;-66
2024/01/29 09:39:45;;;;;;;2.20;0.88;;;5.90;99.90;;;;;;4370488;32;20417;-67
2024/01/29 09:42:16;;;;;;;0.60;0.60;;;6.00;99.90;;;;;;4386312;32;20073;-66
2024/01/29 09:44:45;;;;;;;0.30;0.30;;;6.10;99.90;;;;;;4378655;32;20971;-66
2024/01/29 09:47:12;;;;;;;0.75;0.65;;;6.10;99.90;;;;;;4388896;32;20070;-65
2024/01/29 09:49:38;;;;;;;5.53;1.42;;;6.20;99.90;;;;;;4359209;32;20147;-66
2024/01/29 09:52:04;;;;;;;1.75;0.82;;;6.20;99.90;;;;;;4380590;32;20093;-65
2024/01/29 09:54:33;;;;;;;1.33;1.23;;;6.30;99.90;;;;;;4361445;32;20348;-66
2024/01/29 09:56:59;;;;;;;0.50;0.50;;;6.40;99.90;;;;;;4376316;32;20069;-69
2024/01/29 09:59:25;;;;;;;0.55;0.55;;;6.60;99.90;;;;;;4376867;32;21093;-65
2024/01/29 10:01:50;;;;;;;0.70;0.57;;;6.80;99.90;;;;;;4389374;32;20729;-62
2024/01/29 10:04:16;;;;;;;4.60;2.35;;;6.90;99.90;;;;;;4384475;32;20228;-63
2024/01/29 10:06:42;;;;;;;2.92;0.98;;;7.00;99.90;;;;;;4398093;32;21239;-67
2024/01/29 10:09:11;;;;;;;0.40;0.40;;;7.10;99.90;;;;;;4389335;32;20484;-62
2024/01/29 10:11:39;;;;;;;3.85;0.82;;;7.10;99.90;;;;;;4383201;32;20710;-66
2024/01/29 10:14:05;;;;;;;0.40;0.40;;;7.10;99.90;;;;;;4382419;32;20161;-64
2024/01/29 10:16:31;;;;;;;1.15;1.02;;;7.20;99.90;;;;;;4385593;32;20121;-64
2024/01/29 10:18:57;;;;;;;1.50;1.00;;;7.20;99.90;;;;;;4382899;32;20101;-63
2024/01/29 10:21:23;;;;;;;0.82;0.82;;;7.30;99.90;;;;;;4368200;32;20089;-62
2024/01/29 10:23:55;;;;;;;0.37;0.37;;;7.30;99.90;;;;;;4361034;32;20093;-66
2024/01/29 10:26:22;;;;;;;0.40;0.40;;;7.30;99.90;;;;;;4385123;32;20065;-67
2024/01/29 10:28:58;;;;;;;0.62;0.62;;;7.40;99.90;;;;;;4387786;32;20092;-66
2024/01/29 10:31:23;;;;;;;0.52;0.52;;;7.50;99.90;;;;;;4389896;32;20187;-68
2024/01/29 10:33:49;;;;;;;0.55;0.55;;;7.70;99.90;;;;;;4372276;32;20619;-69
2024/01/29 10:36:16;;;;;;;0.85;0.50;;;7.80;99.90;;;;;;4386237;32;20090;-66
2024/01/29 10:38:46;;;;;;;0.43;0.43;;;7.80;99.90;;;;;;4395335;32;20101;-66
2024/01/29 10:41:16;;;;;;;29.92;1.00;;;7.80;99.90;;;;;;4383558;32;20759;-67
2024/01/29 10:43:46;;;;;;;1.87;1.77;;;7.90;99.90;;;;;;4388717;32;20774;-66
2024/01/29 10:46:16;;;;;;;0.62;0.60;;;8.10;99.90;;;;;;4376742;32;20825;-67
2024/01/29 10:48:42;;;;;;;0.35;0.35;;;8.20;99.90;;;;;;4379810;32;20094;-65
2024/01/29 10:51:10;;;;;;;0.80;0.80;;;8.20;99.90;;;;;;4382019;32;20089;-65
2024/01/29 10:53:37;;;;;;;1.17;0.82;;;8.30;99.90;;;;;;4375567;32;20093;-65
2024/01/29 10:56:04;;;;;;;0.60;0.60;;;8.30;99.90;;;;;;4381169;32;20603;-65
2024/01/29 10:58:30;;;;;;;11.50;0.85;;;8.40;99.90;;;;;;4379634;32;20089;-65
2024/01/29 11:00:56;;;;;;;1.27;1.02;;;8.40;99.90;;;;;;4385188;32;20585;-65
2024/01/29 11:03:23;;;;;;;0.57;0.57;;;8.50;99.90;;;;;;4389082;32;20431;-68
2024/01/29 11:05:56;;;;;;;0.82;0.82;;;8.60;99.90;;;;;;4392570;32;20292;-66
2024/01/29 11:08:27;;;;;;;0.30;0.30;;;8.80;99.90;;;;;;4384936;32;20069;-66
2024/01/29 11:10:52;;;;;;;8.57;3.05;;;8.90;99.90;;;;;;4372009;32;20596;-66
2024/01/29 11:13:20;;;;;;;0.28;0.28;;;9.10;99.90;;;;;;4382038;32;20085;-67
2024/01/29 11:15:46;;;;;;;0.40;0.40;;;9.20;99.90;;;;;;4364338;32;20473;-67
2024/01/29 11:18:12;;;;;;;0.30;0.30;;;9.40;99.90;;;;;;4377046;32;20607;-67
2024/01/29 11:20:39;;;;;;;0.40;0.40;;;9.50;99.90;;;;;;4376761;32;20398;-66
2024/01/29 11:23:05;;;;;;;0.47;0.47;;;9.70;99.90;;;;;;4378441;32;20763;-63
2024/01/29 11:25:31;;;;;;;0.57;0.45;;;9.80;99.90;;;;;;4387535;32;20385;-62
2024/01/29 11:27:57;;;;;;;0.40;0.40;;;9.90;99.90;;;;;;4385675;32;20113;-63
2024/01/29 11:30:25;;;;;;;3.92;0.95;;;10.00;99.90;;;;;;4386025;32;20109;-63
2024/01/29 11:32:53;;;;;;;0.30;0.30;;;10.10;99.90;;;;;;4360475;32;21040;-68
2024/01/29 11:35:22;;;;;;;0.37;0.37;;;10.20;99.90;;;;;;4393669;32;20844;-67
2024/01/29 11:37:50;;;;;;;0.65;0.65;;;10.50;99.90;;;;;;4393124;32;20093;-69
2024/01/29 11:40:33;;;;;;;2.35;1.52;;;10.70;99.90;;;;;;4392056;32;20151;-67
2024/01/29 11:43:00;;;;;;;1.23;0.88;;;10.80;99.30;;;;;;4383766;32;20093;-66
2024/01/29 11:45:28;;;;;;;4.82;0.80;;;11.00;99.00;;;;;;4391426;32;20882;-66
2024/01/29 11:47:54;;;;;;;0.40;0.40;;;11.10;98.50;;;;;;4396474;32;20074;-67
2024/01/29 11:50:19;;;;;;;0.68;0.55;;;11.30;98.00;;;;;;4393042;32;20109;-70
2024/01/29 11:52:45;;;;;;;0.40;0.40;;;11.30;97.10;;;;;;4379492;32;80588;-67
2024/01/29 11:55:11;;;;;;;1.20;0.57;;;11.50;97.30;;;;;;4377020;32;20349;-66
2024/01/29 11:57:37;;;;;;;0.40;0.40;;;11.70;96.60;;;;;;4379568;32;21840;-66
2024/01/29 12:00:06;;;;;;;1.02;0.60;;;11.60;96.50;;;;;;4385927;32;20613;-67
2024/01/29 12:02:32;;;;;;;0.50;0.50;;;11.90;96.60;;;;;;4394992;32;20110;-64
2024/01/29 12:04:58;;;;;;;0.50;0.50;;;12.00;95.80;;;;;;4382611;32;20081;-64
2024/01/29 12:07:24;;;;;;;0.88;0.88;;;12.00;95.60;;;;;;4396327;32;20151;-65
2024/01/29 12:09:49;;;;;;;0.60;0.60;;;12.00;95.80;;;;;;4386587;32;20916;-66
2024/01/29 12:12:15;;;;;;;0.52;0.52;;;12.10;95.80;;;;;;4391696;32;20077;-66
2024/01/29 12:14:41;;;;;;;0.55;0.55;;;11.90;95.60;;;;;;4388732;32;20148;-66
2024/01/29 12:17:09;;;;;;;0.40;0.40;;;11.60;95.80;;;;;;4388957;32;20525;-69
2024/01/29 12:19:35;;;;;;;1.08;0.80;;;11.50;96.30;;;;;;4386874;32;20098;-69
2024/01/29 12:22:01;;;;;;;0.40;0.40;;;11.50;96.10;;;;;;4393371;32;20196;-69
2024/01/29 12:24:27;;;;;;;0.40;0.40;;;11.40;96.10;;;;;;4389767;32;20843;-69
2024/01/29 12:26:53;;;;;;;0.30;0.30;;;11.20;96.20;;;;;;4392349;32;20081;-69
2024/01/29 12:29:19;;;;;;;0.73;0.73;;;10.90;96.40;;;;;;4386999;32;20497;-68
2024/01/29 12:31:44;;;;;;;0.45;0.45;;;10.70;96.70;;;;;;4395312;32;20148;-63
2024/01/29 12:34:18;;;;;;;1.55;1.27;;;10.70;97.10;;;;;;4392688;32;20117;-62
2024/01/29 12:36:50;;;;;;;0.47;0.47;;;10.80;97.10;;;;;;4383568;32;20706;-63
2024/01/29 12:39:16;;;;;;;0.50;0.50;;;10.80;97.00;;;;;;4390097;32;20133;-63
2024/01/29 12:41:42;;;;;;;3.95;0.70;;;11.00;97.10;;;;;;4387247;32;20098;-70
2024/01/29 12:44:10;;;;;;;0.75;0.75;;;11.30;96.90;;;;;;4371544;32;20092;-63
2024/01/29 12:46:36;;;;;;;0.40;0.40;;;11.30;95.80;;;;;;4381485;32;20212;-63
2024/01/29 12:49:05;;;;;;;0.43;0.43;;;11.40;96.80;;;;;;4385797;32;20211;-63
2024/01/29 12:51:33;;;;;;;0.73;0.73;;;11.50;96.30;;;;;;4370907;32;20097;-64